sensor_id;sensor_type;location;lat;lon;timestamp;pressure;altitude;pressure_sealevel;temperature;humidity
75409;BME280;63979;55.644;37.734;2023-01-26T00:04:08;100982.22;;;-2.24;75.09
75409;BME280;63979;55.644;37.734;2023-01-26T00:09:12;100971.75;;;-2.27;75.58
75409;BME280;63979;55.644;37.734;2023-01-26T00:14:14;100893.25;;;-2.75;75.75
75409;BME280;63979;55.644;37.734;2023-01-26T00:19:15;100976.09;;;-2.26;75.30
75409;BME280;63979;55.644;37.734;2023-01-26T00:24:16;100935.13;;;-2.42;75.46
75409;BME280;63979;55.644;37.734;2023-01-26T00:29:18;100971.75;;;-2.24;75.39
75409;BME280;63979;55.644;37.734;2023-01-26T00:34:19;100980.47;;;-2.25;75.41
75409;BME280;63979;55.644;37.734;2023-01-26T00:39:20;100961.28;;;-2.33;75.71
75409;BME280;63979;55.644;37.734;2023-01-26T00:44:21;100963.03;;;-2.32;75.44
75409;BME280;63979;55.644;37.734;2023-01-26T00:49:22;100958.66;;;-2.39;75.49
75409;BME280;63979;55.644;37.734;2023-01-26T00:54:23;100950.81;;;-2.33;75.44
75409;BME280;63979;55.644;37.734;2023-01-26T00:59:24;100956.00;;;-2.48;74.97
75409;BME280;63979;55.644;37.734;2023-01-26T01:04:25;100927.25;;;-2.59;74.90
75409;BME280;63979;55.644;37.734;2023-01-26T01:09:26;100942.94;;;-2.49;75.25
75409;BME280;63979;55.644;37.734;2023-01-26T01:14:27;100924.63;;;-2.59;75.61
75409;BME280;63979;55.644;37.734;2023-01-26T01:19:28;100903.72;;;-2.51;74.75
75409;BME280;63979;55.644;37.734;2023-01-26T01:24:29;100922.06;;;-2.39;75.31
75409;BME280;63979;55.644;37.734;2023-01-26T01:29:30;100933.41;;;-2.31;74.71
75409;BME280;63979;55.644;37.734;2023-01-26T01:34:31;100922.94;;;-2.34;75.11
75409;BME280;63979;55.644;37.734;2023-01-26T01:39:32;100938.63;;;-2.28;74.42
75409;BME280;63979;55.644;37.734;2023-01-26T01:44:34;100937.75;;;-2.25;74.27
75409;BME280;63979;55.644;37.734;2023-01-26T01:49:41;100917.72;;;-2.38;74.64
75409;BME280;63979;55.644;37.734;2023-01-26T01:54:50;100927.31;;;-2.25;74.17
75409;BME280;63979;55.644;37.734;2023-01-26T02:00:05;100943.88;;;-2.25;74.56
75409;BME280;63979;55.644;37.734;2023-01-26T02:05:14;100939.50;;;-2.23;73.48
75409;BME280;63979;55.644;37.734;2023-01-26T02:10:19;100930.78;;;-2.20;73.35
75409;BME280;63979;55.644;37.734;2023-01-26T02:15:22;100929.03;;;-2.18;73.18
75409;BME280;63979;55.644;37.734;2023-01-26T02:25:45;100927.31;;;-2.21;73.49
75409;BME280;63979;55.644;37.734;2023-01-26T02:30:49;100876.72;;;-2.55;73.60
75409;BME280;63979;55.644;37.734;2023-01-26T02:35:51;100906.38;;;-2.34;73.46
75409;BME280;63979;55.644;37.734;2023-01-26T02:40:59;100875.84;;;-2.64;74.46
75409;BME280;63979;55.644;37.734;2023-01-26T02:46:02;100892.44;;;-2.26;73.95
75409;BME280;63979;55.644;37.734;2023-01-26T02:51:04;100859.34;;;-2.40;73.58
75409;BME280;63979;55.644;37.734;2023-01-26T02:56:06;100891.53;;;-2.44;74.39
75409;BME280;63979;55.644;37.734;2023-01-26T03:01:07;100885.47;;;-2.28;73.77
75409;BME280;63979;55.644;37.734;2023-01-26T03:06:09;100882.00;;;-2.35;74.66
75409;BME280;63979;55.644;37.734;2023-01-26T03:11:11;100888.09;;;-2.28;74.21
75409;BME280;63979;55.644;37.734;2023-01-26T03:16:12;100888.97;;;-2.25;73.76
75409;BME280;63979;55.644;37.734;2023-01-26T03:21:18;100888.09;;;-2.24;74.04
75409;BME280;63979;55.644;37.734;2023-01-26T03:26:38;100885.47;;;-2.19;74.15
75409;BME280;63979;55.644;37.734;2023-01-26T03:31:58;100879.38;;;-2.26;73.91
75409;BME280;63979;55.644;37.734;2023-01-26T03:36:59;100885.47;;;-2.31;74.23
75409;BME280;63979;55.644;37.734;2023-01-26T03:42:01;100879.38;;;-2.27;74.27
75409;BME280;63979;55.644;37.734;2023-01-26T03:47:20;100892.44;;;-2.24;74.17
75409;BME280;63979;55.644;37.734;2023-01-26T03:52:40;100895.94;;;-2.24;73.38
75409;BME280;63979;55.644;37.734;2023-01-26T03:58:00;100882.84;;;-2.27;74.29
75409;BME280;63979;55.644;37.734;2023-01-26T04:03:01;100882.00;;;-2.35;73.89
75409;BME280;63979;55.644;37.734;2023-01-26T04:08:21;100877.63;;;-2.36;74.25
75409;BME280;63979;55.644;37.734;2023-01-26T04:13:26;100869.78;;;-2.30;74.05
75409;BME280;63979;55.644;37.734;2023-01-26T04:18:46;100877.63;;;-2.30;73.30
75409;BME280;63979;55.644;37.734;2023-01-26T04:24:06;100877.63;;;-2.21;73.63
75409;BME280;63979;55.644;37.734;2023-01-26T04:29:14;100827.06;;;-2.56;74.21
75409;BME280;63979;55.644;37.734;2023-01-26T04:34:16;100854.09;;;-2.28;73.32
75409;BME280;63979;55.644;37.734;2023-01-26T04:39:17;100871.53;;;-2.30;73.46
75409;BME280;63979;55.644;37.734;2023-01-26T04:44:18;100881.13;;;-2.26;73.56
75409;BME280;63979;55.644;37.734;2023-01-26T04:49:20;100886.34;;;-2.25;73.58
75409;BME280;63979;55.644;37.734;2023-01-26T04:54:21;100827.06;;;-2.53;72.64
75409;BME280;63979;55.644;37.734;2023-01-26T04:59:23;100889.81;;;-2.29;73.08
75409;BME280;63979;55.644;37.734;2023-01-26T05:04:24;100880.22;;;-2.16;73.11
75409;BME280;63979;55.644;37.734;2023-01-26T05:09:25;100831.41;;;-2.43;73.09
75409;BME280;63979;55.644;37.734;2023-01-26T05:14:26;100871.53;;;-2.27;73.38
75409;BME280;63979;55.644;37.734;2023-01-26T05:19:27;100854.09;;;-2.40;72.76
75409;BME280;63979;55.644;37.734;2023-01-26T05:24:28;100861.06;;;-2.27;72.97
75409;BME280;63979;55.644;37.734;2023-01-26T05:29:29;100865.41;;;-2.25;72.25
75409;BME280;63979;55.644;37.734;2023-01-26T05:34:30;100857.56;;;-2.22;72.57
75409;BME280;63979;55.644;37.734;2023-01-26T05:39:31;100860.19;;;-2.25;72.85
75409;BME280;63979;55.644;37.734;2023-01-26T05:44:32;100871.53;;;-2.20;72.48
75409;BME280;63979;55.644;37.734;2023-01-26T05:49:33;100800.94;;;-2.62;72.61
75409;BME280;63979;55.644;37.734;2023-01-26T05:54:35;100853.22;;;-2.20;72.58
75409;BME280;63979;55.644;37.734;2023-01-26T05:59:36;100827.09;;;-2.39;72.09
75409;BME280;63979;55.644;37.734;2023-01-26T06:04:37;100875.88;;;-2.15;72.38
75409;BME280;63979;55.644;37.734;2023-01-26T06:09:39;100857.56;;;-2.15;72.49
75409;BME280;63979;55.644;37.734;2023-01-26T06:14:40;100872.38;;;-2.10;72.20
75409;BME280;63979;55.644;37.734;2023-01-26T06:19:42;100844.47;;;-2.09;72.10
75409;BME280;63979;55.644;37.734;2023-01-26T06:24:43;100854.09;;;-2.13;72.47
75409;BME280;63979;55.644;37.734;2023-01-26T06:29:45;100801.78;;;-2.45;72.41
75409;BME280;63979;55.644;37.734;2023-01-26T06:34:46;100800.06;;;-2.38;72.54
75409;BME280;63979;55.644;37.734;2023-01-26T06:39:47;100837.53;;;-2.04;71.84
75409;BME280;63979;55.644;37.734;2023-01-26T06:44:48;100781.78;;;-2.31;72.71
75409;BME280;63979;55.644;37.734;2023-01-26T06:49:49;100845.34;;;-1.91;71.95
75409;BME280;63979;55.644;37.734;2023-01-26T06:54:50;100846.19;;;-1.81;71.39
75409;BME280;63979;55.644;37.734;2023-01-26T06:59:52;100836.59;;;-1.71;71.24
75409;BME280;63979;55.644;37.734;2023-01-26T07:04:53;100827.03;;;-1.89;71.57
75409;BME280;63979;55.644;37.734;2023-01-26T07:09:54;100840.97;;;-1.73;71.57
75409;BME280;63979;55.644;37.734;2023-01-26T07:14:55;100842.69;;;-1.77;71.63
75409;BME280;63979;55.644;37.734;2023-01-26T07:19:55;100832.25;;;-1.71;70.96
75409;BME280;63979;55.644;37.734;2023-01-26T07:24:56;100820.03;;;-1.67;70.32
75409;BME280;63979;55.644;37.734;2023-01-26T07:29:57;100833.03;;;-1.49;70.97
75409;BME280;63979;55.644;37.734;2023-01-26T07:34:58;100834.84;;;-1.65;71.07
75409;BME280;63979;55.644;37.734;2023-01-26T07:39:59;100833.06;;;-1.53;70.77
75409;BME280;63979;55.644;37.734;2023-01-26T07:45:00;100792.97;;;-1.63;70.03
75409;BME280;63979;55.644;37.734;2023-01-26T07:50:01;100831.34;;;-1.64;71.26
75409;BME280;63979;55.644;37.734;2023-01-26T07:55:04;100830.38;;;-1.31;70.15
75409;BME280;63979;55.644;37.734;2023-01-26T08:00:06;100823.34;;;-1.27;69.83
75409;BME280;63979;55.644;37.734;2023-01-26T08:05:08;100809.28;;;-1.02;69.07
75409;BME280;63979;55.644;37.734;2023-01-26T08:10:09;100816.34;;;-1.19;69.79
75409;BME280;63979;55.644;37.734;2023-01-26T08:15:11;100825.13;;;-1.29;70.25
75409;BME280;63979;55.644;37.734;2023-01-26T08:20:12;100813.66;;;-1.10;69.23
75409;BME280;63979;55.644;37.734;2023-01-26T08:25:13;100779.63;;;-1.13;68.71
75409;BME280;63979;55.644;37.734;2023-01-26T08:30:15;100786.63;;;-1.15;69.88
75409;BME280;63979;55.644;37.734;2023-01-26T08:35:16;100777.91;;;-1.15;69.56
75409;BME280;63979;55.644;37.734;2023-01-26T08:40:17;100782.31;;;-1.25;70.58
75409;BME280;63979;55.644;37.734;2023-01-26T08:45:18;100780.50;;;-1.12;71.01
75409;BME280;63979;55.644;37.734;2023-01-26T08:50:19;100755.22;;;-1.21;69.33
75409;BME280;63979;55.644;37.734;2023-01-26T08:55:20;100795.31;;;-1.10;70.17
75409;BME280;63979;55.644;37.734;2023-01-26T09:00:22;100766.50;;;-1.08;69.42
75409;BME280;63979;55.644;37.734;2023-01-26T09:05:24;100761.31;;;-1.14;70.13
75409;BME280;63979;55.644;37.734;2023-01-26T09:10:25;100777.94;;;-1.20;70.03
75409;BME280;63979;55.644;37.734;2023-01-26T09:15:27;100773.47;;;-1.06;69.78
75409;BME280;63979;55.644;37.734;2023-01-26T09:20:28;100780.44;;;-1.06;69.94
75409;BME280;63979;55.644;37.734;2023-01-26T09:25:29;100771.72;;;-1.02;69.91
75409;BME280;63979;55.644;37.734;2023-01-26T09:30:30;100764.66;;;-0.92;69.44
75409;BME280;63979;55.644;37.734;2023-01-26T09:35:32;100754.22;;;-0.99;69.44
75409;BME280;63979;55.644;37.734;2023-01-26T09:40:57;100721.09;;;-1.10;70.18
75409;BME280;63979;55.644;37.734;2023-01-26T09:51:32;100748.78;;;-0.73;69.89
75409;BME280;63979;55.644;37.734;2023-01-26T09:56:34;100742.66;;;-0.70;69.88
75409;BME280;63979;55.644;37.734;2023-01-26T10:07:02;100751.50;;;-0.83;70.17
75409;BME280;63979;55.644;37.734;2023-01-26T10:12:34;100745.44;;;-0.91;70.20
75409;BME280;63979;55.644;37.734;2023-01-26T10:17:39;100694.88;;;-1.06;69.68
75409;BME280;63979;55.644;37.734;2023-01-26T10:22:43;100748.03;;;-0.88;70.55
75409;BME280;63979;55.644;37.734;2023-01-26T10:27:45;100709.72;;;-1.03;69.82
75409;BME280;63979;55.644;37.734;2023-01-26T10:32:50;100731.38;;;-0.81;69.99
75409;BME280;63979;55.644;37.734;2023-01-26T10:37:52;100726.94;;;-0.73;69.72
75409;BME280;63979;55.644;37.734;2023-01-26T10:42:56;100715.66;;;-0.81;70.25
75409;BME280;63979;55.644;37.734;2023-01-26T10:48:17;100716.53;;;-0.82;69.98
75409;BME280;63979;55.644;37.734;2023-01-26T10:53:26;100731.28;;;-0.71;70.12
75409;BME280;63979;55.644;37.734;2023-01-26T10:58:43;100712.88;;;-0.60;69.98
75409;BME280;63979;55.644;37.734;2023-01-26T11:14:15;100684.81;;;-0.52;70.29
75409;BME280;63979;55.644;37.734;2023-01-26T11:51:45;100670.97;;;-0.63;70.63
75409;BME280;63979;55.644;37.734;2023-01-26T11:56:48;100678.72;;;-0.52;71.14
75409;BME280;63979;55.644;37.734;2023-01-26T12:02:00;100666.44;;;-0.50;71.21
75409;BME280;63979;55.644;37.734;2023-01-26T12:07:11;100658.78;;;-0.67;70.97
75409;BME280;63979;55.644;37.734;2023-01-26T12:12:34;100670.88;;;-0.54;71.17
75409;BME280;63979;55.644;37.734;2023-01-26T12:23:04;100627.31;;;-0.67;71.06
75409;BME280;63979;55.644;37.734;2023-01-26T12:33:25;100654.25;;;-0.54;71.07
75409;BME280;63979;55.644;37.734;2023-01-26T12:49:15;100602.88;;;-0.74;71.26
75409;BME280;63979;55.644;37.734;2023-01-26T12:54:36;100636.88;;;-0.63;71.97
75409;BME280;63979;55.644;37.734;2023-01-26T12:59:40;100654.22;;;-0.50;71.59
75409;BME280;63979;55.644;37.734;2023-01-26T13:04:42;100617.78;;;-0.79;71.57
75409;BME280;63979;55.644;37.734;2023-01-26T13:10:07;100654.28;;;-0.56;71.80
75409;BME280;63979;55.644;37.734;2023-01-26T13:15:13;100655.13;;;-0.54;71.65
75409;BME280;63979;55.644;37.734;2023-01-26T13:20:23;100669.09;;;-0.52;72.11
75409;BME280;63979;55.644;37.734;2023-01-26T13:25:28;100668.22;;;-0.52;71.91
75409;BME280;63979;55.644;37.734;2023-01-26T13:30:44;100609.88;;;-0.74;71.73
75409;BME280;63979;55.644;37.734;2023-01-26T13:35:46;100639.41;;;-0.54;72.17
75409;BME280;63979;55.644;37.734;2023-01-26T13:40:49;100654.16;;;-0.45;71.91
75409;BME280;63979;55.644;37.734;2023-01-26T13:56:26;100661.28;;;-0.58;72.28
75409;BME280;63979;55.644;37.734;2023-01-26T14:01:28;100665.59;;;-0.52;72.81
75409;BME280;63979;55.644;37.734;2023-01-26T14:06:29;100665.53;;;-0.45;72.61
75409;BME280;63979;55.644;37.734;2023-01-26T14:11:32;100670.78;;;-0.48;72.62
75409;BME280;63979;55.644;37.734;2023-01-26T14:16:35;100657.84;;;-0.61;72.40
75409;BME280;63979;55.644;37.734;2023-01-26T14:21:51;100676.19;;;-0.63;72.95
75409;BME280;63979;55.644;37.734;2023-01-26T14:26:53;100674.44;;;-0.61;73.33
75409;BME280;63979;55.644;37.734;2023-01-26T14:31:56;100672.72;;;-0.65;73.82
75409;BME280;63979;55.644;37.734;2023-01-26T14:37:06;100670.13;;;-0.71;73.94
75409;BME280;63979;55.644;37.734;2023-01-26T14:42:12;100670.25;;;-0.82;73.86
75409;BME280;63979;55.644;37.734;2023-01-26T14:52:30;100671.16;;;-0.87;74.25
75409;BME280;63979;55.644;37.734;2023-01-26T14:57:33;100658.88;;;-0.82;74.45
75409;BME280;63979;55.644;37.734;2023-01-26T15:02:37;100645.91;;;-0.95;74.57
75409;BME280;63979;55.644;37.734;2023-01-26T15:07:45;100643.31;;;-0.98;74.39
75409;BME280;63979;55.644;37.734;2023-01-26T15:13:04;100655.47;;;-0.90;74.45
75409;BME280;63979;55.644;37.734;2023-01-26T15:23:34;100663.38;;;-0.97;74.54
75409;BME280;63979;55.644;37.734;2023-01-26T15:28:36;100658.19;;;-1.04;75.15
75409;BME280;63979;55.644;37.734;2023-01-26T15:33:45;100660.81;;;-1.06;75.05
75409;BME280;63979;55.644;37.734;2023-01-26T15:38:46;100643.34;;;-1.02;74.57
75409;BME280;63979;55.644;37.734;2023-01-26T15:43:47;100657.28;;;-0.99;75.02
75409;BME280;63979;55.644;37.734;2023-01-26T15:48:48;100652.19;;;-1.17;75.71
75409;BME280;63979;55.644;37.734;2023-01-26T15:53:52;100639.13;;;-1.21;75.39
75409;BME280;63979;55.644;37.734;2023-01-26T15:58:53;100647.06;;;-1.32;76.32
75409;BME280;63979;55.644;37.734;2023-01-26T16:03:54;100637.47;;;-1.32;75.95
75409;BME280;63979;55.644;37.734;2023-01-26T16:08:56;100643.63;;;-1.37;76.19
75409;BME280;63979;55.644;37.734;2023-01-26T16:13:57;100631.38;;;-1.32;75.79
75409;BME280;63979;55.644;37.734;2023-01-26T16:19:00;100633.19;;;-1.45;76.73
75409;BME280;63979;55.644;37.734;2023-01-26T16:24:02;100635.84;;;-1.51;76.51
75409;BME280;63979;55.644;37.734;2023-01-26T16:29:03;100641.88;;;-1.41;76.95
75409;BME280;63979;55.644;37.734;2023-01-26T16:34:05;100654.25;;;-1.65;77.46
75409;BME280;63979;55.644;37.734;2023-01-26T16:39:05;100628.06;;;-1.62;77.65
75409;BME280;63979;55.644;37.734;2023-01-26T16:44:12;100626.41;;;-1.73;77.97
75409;BME280;63979;55.644;37.734;2023-01-26T16:49:13;100652.56;;;-1.72;78.24
75409;BME280;63979;55.644;37.734;2023-01-26T16:54:15;100582.91;;;-1.97;77.98
75409;BME280;63979;55.644;37.734;2023-01-26T16:59:16;100648.19;;;-1.68;78.16
75409;BME280;63979;55.644;37.734;2023-01-26T17:04:17;100641.16;;;-1.65;78.25
75409;BME280;63979;55.644;37.734;2023-01-26T17:09:18;100631.66;;;-1.81;78.44
75409;BME280;63979;55.644;37.734;2023-01-26T17:14:20;100648.19;;;-1.68;78.54
75409;BME280;63979;55.644;37.734;2023-01-26T17:19:22;100649.88;;;-1.64;78.75
75409;BME280;63979;55.644;37.734;2023-01-26T17:24:23;100642.03;;;-1.63;77.96
75409;BME280;63979;55.644;37.734;2023-01-26T17:29:24;100647.31;;;-1.78;79.28
75409;BME280;63979;55.644;37.734;2023-01-26T17:34:25;100635.19;;;-1.90;79.48
75409;BME280;63979;55.644;37.734;2023-01-26T17:39:26;100615.19;;;-1.98;80.40
75409;BME280;63979;55.644;37.734;2023-01-26T17:44:27;100593.44;;;-2.14;80.35
75409;BME280;63979;55.644;37.734;2023-01-26T17:49:28;100622.16;;;-1.96;79.82
75409;BME280;63979;55.644;37.734;2023-01-26T17:54:29;100639.53;;;-1.84;79.42
75409;BME280;63979;55.644;37.734;2023-01-26T17:59:30;100634.31;;;-1.90;79.70
75409;BME280;63979;55.644;37.734;2023-01-26T18:04:31;100636.94;;;-1.90;79.41
75409;BME280;63979;55.644;37.734;2023-01-26T18:09:32;100627.38;;;-1.94;79.01
75409;BME280;63979;55.644;37.734;2023-01-26T18:14:33;100633.41;;;-1.84;78.61
75409;BME280;63979;55.644;37.734;2023-01-26T18:19:34;100591.69;;;-2.10;78.41
75409;BME280;63979;55.644;37.734;2023-01-26T18:24:37;100632.53;;;-1.85;78.70
75409;BME280;63979;55.644;37.734;2023-01-26T18:29:38;100626.44;;;-1.82;78.57
75409;BME280;63979;55.644;37.734;2023-01-26T18:34:39;100614.25;;;-1.88;77.62
75409;BME280;63979;55.644;37.734;2023-01-26T18:39:41;100614.19;;;-1.79;77.07
75409;BME280;63979;55.644;37.734;2023-01-26T18:44:42;100615.91;;;-1.76;77.40
75409;BME280;63979;55.644;37.734;2023-01-26T18:49:44;100621.16;;;-1.76;76.77
75409;BME280;63979;55.644;37.734;2023-01-26T18:54:45;100589.00;;;-1.94;77.09
75409;BME280;63979;55.644;37.734;2023-01-26T18:59:46;100602.00;;;-1.80;77.40
75409;BME280;63979;55.644;37.734;2023-01-26T19:04:48;100613.28;;;-1.70;76.77
75409;BME280;63979;55.644;37.734;2023-01-26T19:09:53;100607.16;;;-1.68;76.73
75409;BME280;63979;55.644;37.734;2023-01-26T19:14:54;100574.19;;;-1.93;76.27
75409;BME280;63979;55.644;37.734;2023-01-26T19:19:55;100589.78;;;-1.81;76.75
75409;BME280;63979;55.644;37.734;2023-01-26T19:24:56;100608.06;;;-1.72;76.27
75409;BME280;63979;55.644;37.734;2023-01-26T19:29:57;100608.97;;;-1.79;76.66
75409;BME280;63979;55.644;37.734;2023-01-26T19:34:59;100603.75;;;-1.80;77.16
75409;BME280;63979;55.644;37.734;2023-01-26T19:40:00;100588.94;;;-1.84;76.72
75409;BME280;63979;55.644;37.734;2023-01-26T19:45:01;100597.63;;;-1.79;76.45
75409;BME280;63979;55.644;37.734;2023-01-26T19:50:04;100607.22;;;-1.80;76.75
75409;BME280;63979;55.644;37.734;2023-01-26T19:55:08;100581.13;;;-1.91;76.89
75409;BME280;63979;55.644;37.734;2023-01-26T20:00:09;100581.22;;;-2.04;76.97
75409;BME280;63979;55.644;37.734;2023-01-26T20:05:11;100593.38;;;-1.96;76.68
75409;BME280;63979;55.644;37.734;2023-01-26T20:10:12;100586.38;;;-1.91;76.55
75409;BME280;63979;55.644;37.734;2023-01-26T20:15:16;100591.59;;;-1.92;76.76
75409;BME280;63979;55.644;37.734;2023-01-26T20:20:16;100573.31;;;-1.97;76.91
75409;BME280;63979;55.644;37.734;2023-01-26T20:25:18;100588.97;;;-1.89;76.79
75409;BME280;63979;55.644;37.734;2023-01-26T20:30:20;100589.00;;;-1.95;76.86
75409;BME280;63979;55.644;37.734;2023-01-26T20:35:21;100593.31;;;-1.85;76.18
75409;BME280;63979;55.644;37.734;2023-01-26T20:40:22;100559.44;;;-2.12;76.55
75409;BME280;63979;55.644;37.734;2023-01-26T20:45:24;100596.81;;;-1.86;76.50
75409;BME280;63979;55.644;37.734;2023-01-26T20:50:25;100592.44;;;-1.89;76.66
75409;BME280;63979;55.644;37.734;2023-01-26T20:55:26;100589.00;;;-1.94;77.11
75409;BME280;63979;55.644;37.734;2023-01-26T21:00:27;100569.03;;;-2.05;76.03
75409;BME280;63979;55.644;37.734;2023-01-26T21:05:28;100584.66;;;-1.95;76.28
75409;BME280;63979;55.644;37.734;2023-01-26T21:10:29;100523.78;;;-2.24;75.86
75409;BME280;63979;55.644;37.734;2023-01-26T21:15:30;100575.91;;;-1.91;76.49
75409;BME280;63979;55.644;37.734;2023-01-26T21:20:31;100585.47;;;-1.86;76.13
75409;BME280;63979;55.644;37.734;2023-01-26T21:25:32;100578.56;;;-1.97;75.93
75409;BME280;63979;55.644;37.734;2023-01-26T21:30:33;100581.19;;;-1.98;76.51
75409;BME280;63979;55.644;37.734;2023-01-26T21:35:34;100568.09;;;-1.97;76.25
75409;BME280;63979;55.644;37.734;2023-01-26T21:40:35;100579.44;;;-1.98;76.95
75409;BME280;63979;55.644;37.734;2023-01-26T21:45:38;100575.13;;;-2.03;76.80
75409;BME280;63979;55.644;37.734;2023-01-26T21:50:54;100583.81;;;-1.98;75.94
75409;BME280;63979;55.644;37.734;2023-01-26T21:56:14;100586.47;;;-2.07;76.02
75409;BME280;63979;55.644;37.734;2023-01-26T22:01:16;100575.97;;;-2.00;75.99
75409;BME280;63979;55.644;37.734;2023-01-26T22:06:17;100596.03;;;-2.11;76.72
75409;BME280;63979;55.644;37.734;2023-01-26T22:11:18;100543.03;;;-2.36;76.95
75409;BME280;63979;55.644;37.734;2023-01-26T22:16:20;100529.13;;;-2.47;77.03
75409;BME280;63979;55.644;37.734;2023-01-26T22:21:21;100543.94;;;-2.41;76.44
75409;BME280;63979;55.644;37.734;2023-01-26T22:26:26;100590.91;;;-2.29;76.37
75409;BME280;63979;55.644;37.734;2023-01-26T22:31:28;100573.47;;;-2.24;77.08
75409;BME280;63979;55.644;37.734;2023-01-26T22:36:32;100590.91;;;-2.29;76.58
75409;BME280;63979;55.644;37.734;2023-01-26T22:41:33;100570.84;;;-2.23;76.17
75409;BME280;63979;55.644;37.734;2023-01-26T22:46:35;100590.84;;;-2.18;76.31
75409;BME280;63979;55.644;37.734;2023-01-26T22:51:39;100582.19;;;-2.25;76.69
75409;BME280;63979;55.644;37.734;2023-01-26T22:56:40;100563.03;;;-2.29;76.83
75409;BME280;63979;55.644;37.734;2023-01-26T23:01:41;100583.94;;;-2.29;76.38
75409;BME280;63979;55.644;37.734;2023-01-26T23:06:42;100560.47;;;-2.39;76.35
75409;BME280;63979;55.644;37.734;2023-01-26T23:11:43;100570.88;;;-2.29;76.52
75409;BME280;63979;55.644;37.734;2023-01-26T23:16:45;100571.72;;;-2.25;76.51
75409;BME280;63979;55.644;37.734;2023-01-26T23:21:46;100600.53;;;-2.33;76.83
75409;BME280;63979;55.644;37.734;2023-01-26T23:26:47;100585.66;;;-2.23;76.58
75409;BME280;63979;55.644;37.734;2023-01-26T23:31:48;100589.19;;;-2.32;77.03
75409;BME280;63979;55.644;37.734;2023-01-26T23:36:49;100578.75;;;-2.33;76.62
75409;BME280;63979;55.644;37.734;2023-01-26T23:41:50;100597.06;;;-2.38;77.16
75409;BME280;63979;55.644;37.734;2023-01-26T23:46:51;100583.13;;;-2.44;77.22
75409;BME280;63979;55.644;37.734;2023-01-26T23:51:52;100556.19;;;-2.65;77.84
75409;BME280;63979;55.644;37.734;2023-01-26T23:56:54;100591.84;;;-2.50;78.28
